createdAt,value
2019-06-07T00:02:27.420Z,98028.93
2019-06-07T00:04:57.567Z,98028.42
2019-06-07T00:07:27.788Z,98020.64
2019-06-07T00:09:58.019Z,98017.41
2019-06-07T00:12:28.195Z,98015.91
2019-06-07T00:14:58.616Z,98014.08
2019-06-07T00:17:28.969Z,98012.50
2019-06-07T00:19:59.653Z,98010.05
2019-06-07T00:22:33.366Z,98001.22
2019-06-07T00:25:01.923Z,97997.73
2019-06-07T00:27:32.231Z,97989.93
2019-06-07T00:30:29.531Z,98001.80
2019-06-07T00:32:34.782Z,98003.23
2019-06-07T00:35:05.683Z,97992.22
2019-06-07T00:37:35.941Z,97981.98
2019-06-07T00:40:16.276Z,97978.17
2019-06-07T00:42:40.238Z,97979.56
2019-06-07T00:45:13.882Z,97975.84
2019-06-07T00:47:43.532Z,97963.20
2019-06-07T00:50:16.393Z,97959.45
2019-06-07T00:55:27.348Z,97962.19
2019-06-07T00:57:55.133Z,97965.16
2019-06-07T01:00:25.839Z,97966.80
2019-06-07T01:02:56.254Z,97970.65
2019-06-07T01:05:31.486Z,97973.06
2019-06-07T01:07:59.090Z,97978.70
2019-06-07T01:10:52.311Z,97969.83
2019-06-07T01:13:01.213Z,97972.52
2019-06-07T01:15:31.813Z,97961.23
2019-06-07T01:20:33.982Z,97970.06
2019-06-07T01:23:04.249Z,97967.73
2019-06-07T01:25:34.393Z,97958.63
2019-06-07T01:28:04.572Z,97966.95
2019-06-07T01:30:36.768Z,97968.59
2019-06-07T01:33:07.040Z,97965.36
2019-06-07T01:35:37.180Z,97970.22
2019-06-07T01:38:07.282Z,97974.77
2019-06-07T01:40:37.583Z,97970.76
2019-06-07T01:43:07.763Z,97970.25
2019-06-07T01:45:38.037Z,97976.97
2019-06-07T01:48:08.204Z,97972.41
2019-06-07T01:50:39.981Z,97966.22
2019-06-07T01:53:10.268Z,97956.27
2019-06-07T01:55:40.612Z,97958.20
2019-06-07T01:58:10.956Z,97960.09
2019-06-07T02:00:41.196Z,97951.52
2019-06-07T02:03:11.449Z,97949.36
2019-06-07T02:05:42.120Z,97951.29
2019-06-07T02:08:12.363Z,97956.41
2019-06-07T02:10:42.924Z,97949.43
2019-06-07T02:13:13.051Z,97948.91
2019-06-07T02:15:43.336Z,97947.83
2019-06-07T02:18:13.929Z,97945.38
2019-06-07T02:20:44.501Z,97946.97
2019-06-07T02:23:14.779Z,97943.20
2019-06-07T02:25:50.226Z,97938.36
2019-06-07T02:28:44.640Z,97939.42
2019-06-07T02:30:59.391Z,97934.63
2019-06-07T02:33:25.818Z,97933.24
2019-06-07T02:35:53.315Z,97944.78
2019-06-07T02:38:27.657Z,97941.28
2019-06-07T02:40:55.847Z,97931.56
2019-06-07T02:43:28.328Z,97930.75
2019-06-07T02:46:21.300Z,97930.45
2019-06-07T02:48:35.282Z,97927.23
2019-06-07T02:51:01.731Z,97916.17
2019-06-07T02:53:38.409Z,97915.86
2019-06-07T02:56:37.840Z,97915.04
2019-06-07T02:58:41.461Z,97919.03
2019-06-07T03:01:10.072Z,97913.88
2019-06-07T03:03:40.463Z,97915.97
2019-06-07T03:06:13.378Z,97917.04
2019-06-07T03:08:46.243Z,97912.18
2019-06-07T03:11:18.528Z,97908.39
2019-06-07T03:13:49.331Z,97905.13
2019-06-07T03:16:26.516Z,97905.08
2019-06-07T03:19:14.308Z,97898.31
2019-06-07T03:21:46.363Z,97896.41
2019-06-07T03:24:16.706Z,97890.20
2019-06-07T03:29:28.336Z,97886.66
2019-06-07T03:31:56.962Z,97872.41
2019-06-07T03:34:32.182Z,97876.45
2019-06-07T03:36:59.392Z,97870.25
2019-06-07T03:39:31.226Z,97876.75
2019-06-07T03:42:06.365Z,97875.97
2019-06-07T03:44:41.397Z,97876.00
2019-06-07T03:47:09.942Z,97879.50
2019-06-07T03:49:42.546Z,97876.83
2019-06-07T03:52:12.441Z,97867.98
2019-06-07T03:54:43.923Z,97870.40
2019-06-07T03:57:14.142Z,97863.38
2019-06-07T03:59:47.699Z,97867.69
2019-06-07T04:02:17.997Z,97867.98
2019-06-07T04:04:48.431Z,97875.78
2019-06-07T04:07:18.792Z,97871.45
2019-06-07T04:09:49.044Z,97870.36
2019-06-07T04:12:19.187Z,97878.16
2019-06-07T04:14:50.623Z,97874.89
2019-06-07T04:17:21.103Z,97878.31
2019-06-07T04:19:51.352Z,97867.43
2019-06-07T04:22:21.832Z,97859.59
2019-06-07T04:24:52.088Z,97855.99
2019-06-07T04:27:23.380Z,97845.97
2019-06-07T04:30:06.660Z,97851.22
2019-06-07T04:32:25.646Z,97852.49
2019-06-07T04:34:55.826Z,97854.84
2019-06-07T04:37:28.934Z,97850.98
2019-06-07T04:40:00.715Z,97849.53
2019-06-07T04:42:37.858Z,97842.66
2019-06-07T04:45:29.218Z,97831.75
2019-06-07T04:47:42.433Z,97824.62
2019-06-07T04:50:12.610Z,97824.23
2019-06-07T04:52:45.568Z,97830.30
2019-06-07T04:55:15.611Z,97831.48
2019-06-07T04:57:46.038Z,97832.19
2019-06-07T05:00:48.825Z,97830.33
2019-06-07T05:02:54.286Z,97832.61
2019-06-07T05:05:25.027Z,97830.00
2019-06-07T05:07:55.557Z,97826.53
2019-06-07T05:10:26.308Z,97818.70
2019-06-07T05:12:57.026Z,97827.80
2019-06-07T05:15:27.639Z,97821.41
2019-06-07T05:17:58.369Z,97818.10
2019-06-07T05:20:29.429Z,97820.50
2019-06-07T05:23:00.597Z,97818.80
2019-06-07T05:25:33.200Z,97824.05
2019-06-07T05:28:03.009Z,97821.85
2019-06-07T05:33:11.779Z,97830.30
2019-06-07T05:35:43.677Z,97826.89
2019-06-07T05:38:14.716Z,97827.11
2019-06-07T05:40:48.634Z,97816.61
2019-06-07T05:43:27.307Z,97815.96
2019-06-07T05:45:57.730Z,97815.03
2019-06-07T05:48:27.907Z,97812.20
2019-06-07T05:50:58.173Z,97817.03
2019-06-07T05:53:28.432Z,97812.13
2019-06-07T05:55:58.796Z,97814.67
2019-06-07T05:58:29.027Z,97809.84
2019-06-07T06:01:41.078Z,97807.97
2019-06-07T06:03:31.678Z,97800.95
2019-06-07T06:06:02.228Z,97801.49
2019-06-07T06:08:36.555Z,97796.14
2019-06-07T06:11:06.595Z,97795.70
2019-06-07T06:13:49.388Z,97796.17
2019-06-07T06:16:08.872Z,97790.00
2019-06-07T06:18:40.740Z,97791.86
2019-06-07T06:21:19.387Z,97793.51
2019-06-07T06:23:45.860Z,97785.67
2019-06-07T06:26:15.293Z,97777.27
2019-06-07T06:28:45.491Z,97767.81
2019-06-07T06:31:15.927Z,97778.78
2019-06-07T06:33:49.871Z,97778.78
2019-06-07T06:36:21.016Z,97784.66
2019-06-07T06:38:52.748Z,97770.63
2019-06-07T06:41:23.271Z,97775.17
2019-06-07T06:43:56.702Z,97774.81
2019-06-07T06:46:39.007Z,97773.34
2019-06-07T06:48:59.255Z,97774.22
2019-06-07T06:51:30.325Z,97773.45
2019-06-07T06:53:59.559Z,97778.03
2019-06-07T06:56:29.661Z,97781.42
2019-06-07T06:59:35.197Z,97775.52
2019-06-07T07:01:30.096Z,97774.97
2019-06-07T07:04:12.040Z,97766.69
2019-06-07T07:06:32.464Z,97755.88
2019-06-07T07:09:03.373Z,97747.40
2019-06-07T07:11:32.750Z,97749.91
2019-06-07T07:14:02.913Z,97748.02
2019-06-07T07:16:35.926Z,97739.17
2019-06-07T07:19:06.163Z,97738.53
2019-06-07T07:21:35.398Z,97744.99
2019-06-07T07:24:21.190Z,97732.01
2019-06-07T07:26:37.762Z,97732.01
2019-06-07T07:29:07.938Z,97729.27
2019-06-07T07:31:38.135Z,97724.26
2019-06-07T07:34:34.915Z,97718.88
2019-06-07T07:36:41.603Z,97711.07
2019-06-07T07:39:13.917Z,97698.44
2019-06-07T07:42:04.800Z,97704.64
2019-06-07T07:44:15.924Z,97698.78
2019-06-07T07:46:46.628Z,97689.03
2019-06-07T07:49:17.178Z,97681.47
2019-06-07T07:51:49.126Z,97676.23
2019-06-07T07:54:19.666Z,97670.20
2019-06-07T07:56:51.720Z,97664.81
2019-06-07T07:59:40.818Z,97654.41
2019-06-07T08:01:56.109Z,97649.81
2019-06-07T08:05:12.167Z,97649.84
2019-06-07T08:06:59.374Z,97635.05
2019-06-07T08:09:31.787Z,97633.02
2019-06-07T08:12:02.670Z,97633.75
2019-06-07T08:14:33.285Z,97623.67
2019-06-07T08:17:03.528Z,97624.13
2019-06-07T08:19:34.393Z,97625.31
2019-06-07T08:22:04.763Z,97619.68
2019-06-07T08:24:35.349Z,97615.14
2019-06-07T08:27:25.121Z,97604.45
2019-06-07T08:29:45.553Z,97604.18
2019-06-07T08:32:13.127Z,97602.75
2019-06-07T08:34:43.352Z,97597.94
2019-06-07T08:37:13.713Z,97589.58
2019-06-07T08:39:43.988Z,97585.98
2019-06-07T08:42:17.998Z,97584.53
2019-06-07T08:44:46.136Z,97582.75
2019-06-07T08:47:20.436Z,97579.84
2019-06-07T08:49:50.646Z,97570.16
2019-06-07T08:52:22.390Z,97572.16
2019-06-07T08:54:55.017Z,97568.73
2019-06-07T08:57:26.111Z,97564.94
2019-06-07T09:00:05.999Z,97571.16
2019-06-07T09:02:30.103Z,97577.25
2019-06-07T09:05:11.143Z,97565.20
2019-06-07T09:07:32.506Z,97568.16
2019-06-07T09:10:13.442Z,97567.45
2019-06-07T09:12:38.185Z,97555.06
2019-06-07T09:15:21.521Z,97550.75
2019-06-07T09:18:30.352Z,97556.63
2019-06-07T09:20:35.091Z,97559.56
2019-06-07T09:22:46.243Z,97560.16
2019-06-07T09:25:21.102Z,97546.48
2019-06-07T09:27:48.539Z,97548.09
2019-06-07T09:30:41.554Z,97543.59
2019-06-07T09:33:12.450Z,97532.90
2019-06-07T09:35:41.873Z,97519.18
2019-06-07T09:38:24.255Z,97520.42
2019-06-07T09:40:43.750Z,97524.08
2019-06-07T09:45:47.542Z,97514.28
2019-06-07T09:49:01.451Z,97509.23
2019-06-07T09:50:50.505Z,97494.11
2019-06-07T09:53:23.270Z,97501.21
2019-06-07T09:55:54.377Z,97490.22
2019-06-07T09:58:50.939Z,97495.83
2019-06-07T10:01:02.061Z,97490.05
2019-06-07T10:03:29.430Z,97487.44
2019-06-07T10:06:03.437Z,97478.87
2019-06-07T10:11:04.722Z,97473.95
2019-06-07T10:13:35.241Z,97481.27
2019-06-07T10:16:07.224Z,97476.09
2019-06-07T10:18:37.708Z,97472.14
2019-06-07T10:21:12.196Z,97463.05
2019-06-07T10:23:38.999Z,97472.77
2019-06-07T10:26:12.372Z,97466.66
2019-06-07T10:28:42.809Z,97464.02
2019-06-07T10:31:13.363Z,97469.84
2019-06-07T10:33:43.934Z,97454.48
2019-06-07T10:36:14.971Z,97454.48
2019-06-07T10:38:45.447Z,97461.45
2019-06-07T10:41:16.139Z,97459.43
2019-06-07T10:43:45.616Z,97451.19
2019-06-07T10:46:15.774Z,97445.69
2019-06-07T10:48:46.087Z,97450.16
2019-06-07T10:51:15.730Z,97441.50
2019-06-07T10:53:46.312Z,97438.14
2019-06-07T10:56:17.018Z,97439.99
2019-06-07T10:58:47.386Z,97445.53
2019-06-07T11:01:17.858Z,97437.43
2019-06-07T11:03:48.087Z,97435.80
2019-06-07T11:06:18.313Z,97431.83
2019-06-07T11:08:48.722Z,97419.86
2019-06-07T11:11:21.186Z,97419.51
2019-06-07T11:13:52.705Z,97413.56
2019-06-07T11:16:22.940Z,97412.87
2019-06-07T11:18:53.909Z,97410.97
2019-06-07T11:21:24.334Z,97405.69
2019-06-07T11:23:55.145Z,97403.96
2019-06-07T11:26:25.841Z,97393.11
2019-06-07T11:28:56.748Z,97382.33
2019-06-07T11:31:27.213Z,97395.50
2019-06-07T11:33:57.774Z,97391.11
2019-06-07T11:36:28.317Z,97390.89
2019-06-07T11:38:59.212Z,97375.27
2019-06-07T11:41:30.922Z,97374.54
2019-06-07T11:44:01.906Z,97366.84
2019-06-07T11:46:32.610Z,97373.69
2019-06-07T11:49:03.070Z,97356.80
2019-06-07T11:51:33.519Z,97361.83
2019-06-07T11:54:03.390Z,97355.03
2019-06-07T11:56:34.484Z,97349.13
2019-06-07T11:59:07.044Z,97348.64
2019-06-07T12:01:38.274Z,97347.68
2019-06-07T12:04:09.540Z,97338.37
2019-06-07T12:06:44.314Z,97330.95
2019-06-07T12:09:14.656Z,97330.61
2019-06-07T12:11:44.894Z,97331.67
2019-06-07T12:14:15.057Z,97331.22
2019-06-07T12:16:45.413Z,97328.94
2019-06-07T12:19:15.596Z,97331.16
2019-06-07T12:21:45.760Z,97319.45
2019-06-07T12:24:16.202Z,97323.34
2019-06-07T12:26:46.748Z,97312.09
2019-06-07T12:29:17.237Z,97305.24
2019-06-07T12:31:47.477Z,97299.47
2019-06-07T12:34:17.639Z,97307.78
2019-06-07T12:36:47.869Z,97298.27
2019-06-07T12:39:18.108Z,97293.95
2019-06-07T12:41:48.746Z,97288.08
2019-06-07T12:44:19.167Z,97286.24
2019-06-07T12:46:49.398Z,97285.14
2019-06-07T12:49:19.573Z,97280.20
2019-06-07T12:51:49.822Z,97272.35
2019-06-07T12:54:20.110Z,97272.35
2019-06-07T12:56:52.333Z,97263.05
2019-06-07T12:59:22.470Z,97263.05
2019-06-07T13:01:52.639Z,97255.53
2019-06-07T13:04:22.895Z,97236.45
2019-06-07T13:06:53.059Z,97229.52
2019-06-07T13:09:23.966Z,97234.66
2019-06-07T13:11:54.296Z,97229.77
2019-06-07T13:14:24.495Z,97225.61
2019-06-07T13:16:54.715Z,97216.83
2019-06-07T13:19:25.015Z,97217.23
2019-06-07T13:21:55.183Z,97220.17
2019-06-07T13:24:25.447Z,97214.58
2019-06-07T13:26:55.598Z,97206.59
2019-06-07T13:29:29.608Z,97209.67
2019-06-07T13:31:57.816Z,97199.72
2019-06-07T13:34:28.180Z,97210.65
2019-06-07T13:36:58.250Z,97212.06
2019-06-07T13:39:29.840Z,97196.00
2019-06-07T13:42:00.529Z,97198.79
2019-06-07T13:44:30.688Z,97201.97
2019-06-07T13:47:01.006Z,97194.20
2019-06-07T13:49:32.424Z,97192.77
2019-06-07T13:52:02.642Z,97204.72
2019-06-07T13:54:32.850Z,97206.30
2019-06-07T13:57:03.387Z,97205.73
2019-06-07T13:59:33.883Z,97194.88
2019-06-07T14:02:04.256Z,97193.47
2019-06-07T14:04:34.460Z,97195.44
2019-06-07T14:07:04.754Z,97187.21
2019-06-07T14:09:34.926Z,97187.21
2019-06-07T14:12:05.176Z,97192.59
2019-06-07T14:14:35.551Z,97186.06
2019-06-07T14:17:06.098Z,97185.67
2019-06-07T14:19:36.380Z,97175.88
2019-06-07T14:22:06.712Z,97175.88
2019-06-07T14:24:36.924Z,97180.37
2019-06-07T14:27:07.088Z,97172.19
2019-06-07T14:29:39.097Z,97170.70
2019-06-07T14:32:09.663Z,97172.46
2019-06-07T14:34:39.839Z,97174.36
2019-06-07T14:37:10.034Z,97171.12
2019-06-07T14:39:40.766Z,97167.90
2019-06-07T14:42:11.209Z,97168.89
2019-06-07T14:44:41.522Z,97180.78
2019-06-07T14:47:13.429Z,97187.67
2019-06-07T14:49:43.770Z,97197.55
2019-06-07T14:52:14.011Z,97204.58
2019-06-07T14:54:44.256Z,97216.05
2019-06-07T14:57:14.500Z,97220.80
2019-06-07T14:59:44.694Z,97219.56
2019-06-07T15:02:14.970Z,97211.67
2019-06-07T15:04:45.248Z,97213.14
2019-06-07T15:07:15.468Z,97211.47
2019-06-07T15:09:45.620Z,97207.70
2019-06-07T15:12:24.478Z,97201.77
2019-06-07T15:14:47.658Z,97206.70
2019-06-07T15:17:18.935Z,97201.44
2019-06-07T15:19:49.134Z,97189.88
2019-06-07T15:22:19.335Z,97203.08
2019-06-07T15:24:49.574Z,97205.41
2019-06-07T15:27:19.766Z,97187.84
2019-06-07T15:29:50.036Z,97187.84
2019-06-07T15:32:20.275Z,97183.31
2019-06-07T15:34:50.520Z,97177.20
2019-06-07T15:37:20.691Z,97181.21
2019-06-07T15:39:50.839Z,97188.11
2019-06-07T15:42:21.008Z,97194.11
2019-06-07T15:44:50.183Z,97193.27
2019-06-07T15:47:20.347Z,97193.66
2019-06-07T15:49:56.074Z,97191.47
2019-06-07T15:52:26.374Z,97197.34
2019-06-07T15:54:56.679Z,97198.83
2019-06-07T15:57:28.022Z,97195.81
2019-06-07T15:59:58.446Z,97194.10
2019-06-07T16:02:31.368Z,97192.52
2019-06-07T16:05:01.582Z,97186.88
2019-06-07T16:07:32.044Z,97194.42
2019-06-07T16:10:02.716Z,97183.23
2019-06-07T16:12:33.054Z,97193.20
2019-06-07T16:15:03.381Z,97183.66
2019-06-07T16:17:37.359Z,97191.24
2019-06-07T16:20:08.294Z,97192.81
2019-06-07T16:22:39.740Z,97189.31
2019-06-07T16:25:11.034Z,97180.22
2019-06-07T16:27:44.803Z,97189.06
2019-06-07T16:30:15.490Z,97192.18
2019-06-07T16:32:46.393Z,97188.36
2019-06-07T16:35:16.734Z,97185.26
2019-06-07T16:37:50.539Z,97196.81
2019-06-07T16:40:19.444Z,97208.10
2019-06-07T16:42:50.866Z,97212.20
2019-06-07T16:45:24.501Z,97223.48
2019-06-07T16:47:54.963Z,97228.97
2019-06-07T16:50:26.060Z,97223.75
2019-06-07T16:52:56.975Z,97231.20
2019-06-07T16:55:27.300Z,97250.63
2019-06-07T16:57:58.019Z,97262.84
2019-06-07T17:00:29.654Z,97277.25
2019-06-07T17:02:59.982Z,97296.27
2019-06-07T17:05:30.386Z,97315.67
2019-06-07T17:08:00.691Z,97325.34
2019-06-07T17:10:31.020Z,97332.50
2019-06-07T17:13:01.324Z,97341.10
2019-06-07T17:15:31.612Z,97348.73
2019-06-07T17:18:02.120Z,97348.18
2019-06-07T17:20:33.605Z,97353.09
2019-06-07T17:23:03.926Z,97365.05
2019-06-07T17:25:34.185Z,97378.98
2019-06-07T17:28:06.480Z,97387.96
2019-06-07T17:30:36.762Z,97394.30
2019-06-07T17:33:07.558Z,97406.11
2019-06-07T17:35:37.797Z,97411.34
2019-06-07T17:38:09.035Z,97412.09
2019-06-07T17:40:40.831Z,97410.15
2019-06-07T17:43:10.106Z,97431.86
2019-06-07T17:45:41.255Z,97447.11
2019-06-07T17:48:11.722Z,97472.21
2019-06-07T17:50:42.034Z,97512.17
2019-06-07T17:53:12.747Z,97546.77
2019-06-07T17:55:46.201Z,97579.71
2019-06-07T17:58:18.210Z,97591.55
2019-06-07T18:00:51.095Z,97599.47
2019-06-07T18:03:21.484Z,97597.88
2019-06-07T18:05:51.732Z,97611.23
2019-06-07T18:08:23.944Z,97633.91
2019-06-07T18:10:54.353Z,97647.91
2019-06-07T18:13:25.180Z,97645.42
2019-06-07T18:15:59.474Z,97636.97
2019-06-07T18:18:27.499Z,97669.45
2019-06-07T18:20:58.265Z,97694.67
2019-06-07T18:23:28.680Z,97711.67
2019-06-07T18:25:59.358Z,97726.03
2019-06-07T18:28:29.687Z,97756.64
2019-06-07T18:31:05.109Z,97753.77
2019-06-07T18:33:35.493Z,97763.80
2019-06-07T18:36:06.588Z,97777.00
2019-06-07T18:38:37.165Z,97780.28
2019-06-07T18:41:07.640Z,97794.74
2019-06-07T18:43:38.227Z,97815.48
2019-06-07T18:46:08.672Z,97821.73
2019-06-07T18:48:41.789Z,97845.81
2019-06-07T18:51:17.194Z,97840.30
2019-06-07T18:53:47.655Z,97848.36
2019-06-07T18:56:18.028Z,97861.64
2019-06-07T18:58:49.123Z,97873.25
2019-06-07T19:01:19.523Z,97863.55
2019-06-07T19:03:50.343Z,97892.75
2019-06-07T19:06:20.809Z,97910.62
2019-06-07T19:08:55.091Z,97908.59
2019-06-07T19:11:24.603Z,97925.61
2019-06-07T19:13:55.158Z,97940.48
2019-06-07T19:16:25.485Z,97955.38
2019-06-07T19:18:55.927Z,97964.97
2019-06-07T19:21:26.128Z,97965.98
2019-06-07T19:24:00.125Z,97971.69
2019-06-07T19:26:30.456Z,97990.81
2019-06-07T19:29:00.934Z,98003.80
2019-06-07T19:31:30.563Z,98024.30
2019-06-07T19:34:04.983Z,98020.80
2019-06-07T19:36:48.045Z,98024.09
2019-06-07T19:39:07.986Z,98032.08
2019-06-07T19:51:08.984Z,98063.02
2019-06-07T19:53:40.336Z,98065.56
2019-06-07T19:56:11.969Z,98069.48
2019-06-07T19:58:42.810Z,98072.42
2019-06-07T20:01:13.761Z,98082.84
2019-06-07T20:03:45.706Z,98087.20
2019-06-07T20:06:15.843Z,98093.17
2019-06-07T20:08:45.545Z,98101.62
2019-06-07T20:15:36.992Z,98119.89
2019-06-07T20:18:08.178Z,98117.50
2019-06-07T20:20:39.455Z,98127.33
2019-06-07T20:23:10.348Z,98141.02
2019-06-07T20:25:42.099Z,98146.84
2019-06-07T20:28:14.087Z,98150.83
2019-06-07T20:30:44.986Z,98154.60
2019-06-07T20:33:16.365Z,98159.13
2019-06-07T20:35:47.656Z,98161.75
2019-06-07T20:38:18.900Z,98165.72
2019-06-07T20:40:49.554Z,98165.48
2019-06-07T20:43:21.244Z,98168.67
2019-06-07T20:45:52.791Z,98178.73
2019-06-07T20:48:23.648Z,98185.06
2019-06-07T20:50:55.203Z,98180.41
2019-06-07T20:53:26.144Z,98199.81
2019-06-07T20:55:58.429Z,98193.85
2019-06-07T20:58:29.986Z,98198.23
2019-06-07T21:01:00.795Z,98197.21
2019-06-07T21:03:30.226Z,98198.00
2019-06-07T21:06:03.532Z,98175.23
2019-06-07T21:08:36.213Z,98179.53
2019-06-07T21:11:07.678Z,98201.13
2019-06-07T21:13:37.934Z,98209.86
2019-06-07T21:16:08.731Z,98212.59
2019-06-07T21:18:38.810Z,98212.71
2019-06-07T21:21:10.633Z,98223.77
2019-06-07T21:23:40.392Z,98221.71
2019-06-07T21:26:13.904Z,98205.56
2019-06-07T21:28:46.500Z,98191.77
2019-06-07T21:31:17.732Z,98190.17
2019-06-07T21:33:48.110Z,98203.14
2019-06-07T21:36:19.657Z,98203.70
2019-06-07T21:38:50.981Z,98195.97
2019-06-07T21:41:20.856Z,98198.02
2019-06-07T21:43:50.668Z,98212.56
2019-06-07T21:46:23.694Z,98215.23
2019-06-07T21:48:53.090Z,98204.91
2019-06-07T21:51:26.077Z,98199.26
2019-06-07T21:53:58.504Z,98200.55
2019-06-07T21:56:29.187Z,98200.03
2019-06-07T21:58:59.969Z,98201.02
2019-06-07T22:01:30.795Z,98214.05
2019-06-07T22:04:01.274Z,98231.73
2019-06-07T22:06:32.974Z,98220.58
2019-06-07T22:09:05.588Z,98218.56
2019-06-07T22:11:36.611Z,98217.67
2019-06-07T22:14:08.419Z,98194.02
2019-06-07T22:16:39.110Z,98201.40
2019-06-07T22:19:10.799Z,98203.75
2019-06-07T22:21:42.235Z,98221.00
2019-06-07T22:24:15.137Z,98231.31
2019-06-07T22:26:45.711Z,98230.54
2019-06-07T22:29:16.370Z,98251.25
2019-06-07T22:31:47.159Z,98250.90
2019-06-07T22:34:19.153Z,98261.08
2019-06-07T22:36:49.901Z,98266.83
2019-06-07T22:39:20.666Z,98267.94
2019-06-07T22:41:51.039Z,98270.25
2019-06-07T22:44:21.706Z,98265.69
2019-06-07T22:46:51.875Z,98265.52
2019-06-07T22:49:22.959Z,98266.97
2019-06-07T22:52:07.921Z,98269.39
2019-06-07T22:54:25.346Z,98259.59
2019-06-07T22:57:00.164Z,98268.45
2019-06-07T22:59:30.615Z,98276.44
2019-06-07T23:02:00.893Z,98280.84
2019-06-07T23:04:31.225Z,98284.30
2019-06-07T23:07:01.557Z,98286.84
2019-06-07T23:09:31.803Z,98286.92
2019-06-07T23:12:03.648Z,98291.02
2019-06-07T23:14:33.852Z,98280.11
2019-06-07T23:17:04.134Z,98283.17
2019-06-07T23:19:34.402Z,98288.06
2019-06-07T23:22:04.513Z,98290.79
2019-06-07T23:24:34.938Z,98300.01
2019-06-07T23:27:05.078Z,98307.70
2019-06-07T23:29:35.269Z,98315.72
2019-06-07T23:32:05.406Z,98303.70
2019-06-07T23:34:35.721Z,98290.42
2019-06-07T23:37:05.854Z,98288.25
2019-06-07T23:39:35.974Z,98289.22
2019-06-07T23:42:06.171Z,98289.14
2019-06-07T23:44:36.362Z,98295.47
2019-06-07T23:47:11.227Z,98286.64
2019-06-07T23:49:38.411Z,98285.92
2019-06-07T23:52:08.748Z,98281.03
2019-06-07T23:54:41.649Z,98261.42
2019-06-07T23:57:12.157Z,98253.19
2019-06-07T23:59:44.715Z,98262.23
